Time;durP1;ratioP1;P1;durP2;ratioP2;P2;SDS_P1;SDS_P2;PMS_P1;PMS_P2;Temp;Humidity;BMP_temperature;BMP_pressure;BME280_temperature;BME280_humidity;BME280_pressure;Samples;Min_cycle;Max_cycle;Signal;HPM_P1;HPM_P2
2021/11/14 00:01:47;;;;;;;8.50;5.30;;;;;;;-3.97;100.00;102315.41;5115508;28;20039;-69
2021/11/14 00:04:14;;;;;;;;;;;;;;;-3.66;100.00;102306.13;5115587;28;20050;-70
2021/11/14 00:06:42;;;;;;;;;;;;;;;-3.53;100.00;102305.66;5113201;28;20323;-69
2021/11/14 00:09:10;;;;;;;7.13;4.35;;;;;;;-3.87;100.00;102322.50;5114808;28;20378;-69
2021/11/14 00:11:37;;;;;;;;;;;;;;;-4.16;100.00;102337.75;5115610;28;20055;-70
2021/11/14 00:14:04;;;;;;;7.57;5.13;;;;;;;-4.25;100.00;102340.00;5114329;28;19926;-70
2021/11/14 00:16:32;;;;;;;18.20;10.15;;;;;;;-4.31;100.00;102342.34;5114760;28;20043;-70
2021/11/14 00:19:00;;;;;;;10.07;5.88;;;;;;;-4.39;100.00;102343.78;5114855;28;20461;-69
2021/11/14 00:21:29;;;;;;;8.65;5.32;;;;;;;-4.40;100.00;102339.50;5114690;28;20052;-69
2021/11/14 00:23:56;;;;;;;10.93;5.75;;;;;;;-4.51;100.00;102340.84;5115115;28;20067;-69
2021/11/14 00:26:23;;;;;;;;;;;;;;;-4.43;100.00;102342.81;5114838;28;20064;-69
2021/11/14 00:28:51;;;;;;;8.65;4.68;;;;;;;-4.43;100.00;102345.34;5114909;28;19944;-69
2021/11/14 00:31:20;;;;;;;8.00;4.90;;;;;;;-4.54;100.00;102348.38;5114693;27;20047;-68
2021/11/14 00:33:50;;;;;;;9.48;5.30;;;;;;;-4.43;100.00;102352.13;5114444;28;20485;-68
2021/11/14 00:36:20;;;;;;;7.60;4.88;;;;;;;-4.44;100.00;102350.41;5114340;28;20447;-69
2021/11/14 00:38:48;;;;;;;12.35;5.28;;;;;;;-4.09;100.00;102345.56;5114462;28;20053;-69
2021/11/14 00:41:15;;;;;;;;;;;;;;;-4.02;100.00;102344.94;5112582;28;20052;-70
2021/11/14 00:43:42;;;;;;;9.05;5.50;;;;;;;-3.89;100.00;102348.72;5114703;28;19919;-69
2021/11/14 00:46:11;;;;;;;8.88;5.70;;;;;;;-3.90;100.00;102352.03;5114388;27;20050;-69
2021/11/14 00:48:41;;;;;;;9.57;5.78;;;;;;;-4.24;100.00;102357.00;5114509;28;20048;-69
2021/11/14 00:51:10;;;;;;;10.60;5.45;;;;;;;-4.38;100.00;102353.13;5114262;28;20052;-68
2021/11/14 00:53:37;;;;;;;9.27;4.78;;;;;;;-4.44;100.00;102347.88;5114092;28;20382;-69
2021/11/14 00:56:05;;;;;;;7.68;4.20;;;;;;;-4.57;100.00;102354.22;5114184;28;20490;-69
2021/11/14 00:58:32;;;;;;;8.35;3.90;;;;;;;-4.54;100.00;102359.41;5114011;28;20445;-69
2021/11/14 01:00:59;;;;;;;8.10;3.55;;;;;;;-4.47;100.00;102363.88;5114491;28;20048;-68
2021/11/14 01:03:26;;;;;;;6.38;4.47;;;;;;;-4.46;100.00;102365.59;5113984;28;20050;-69
2021/11/14 01:05:53;;;;;;;5.05;3.28;;;;;;;-4.34;100.00;102367.69;5113889;28;20055;-69
2021/11/14 01:08:22;;;;;;;7.75;2.95;;;;;;;-4.28;100.00;102369.53;5113710;27;20044;-70
2021/11/14 01:10:52;;;;;;;6.18;3.70;;;;;;;-4.36;100.00;102373.53;5114064;28;20058;-69
2021/11/14 01:13:20;;;;;;;7.13;4.07;;;;;;;-4.49;100.00;102367.19;5114113;28;20048;-69
2021/11/14 01:15:48;;;;;;;8.35;4.15;;;;;;;-4.62;100.00;102366.78;5113972;28;20056;-69
2021/11/14 01:18:17;;;;;;;6.32;3.28;;;;;;;-4.47;100.00;102368.06;5113508;28;20413;-69
2021/11/14 01:20:46;;;;;;;4.15;2.95;;;;;;;-4.30;100.00;102371.16;5113868;28;20501;-68
2021/11/14 01:23:16;;;;;;;7.85;3.95;;;;;;;-4.15;100.00;102384.38;5113307;28;20508;-70
2021/11/14 01:25:46;;;;;;;5.55;3.47;;;;;;;-4.45;100.00;102390.16;5112857;28;20512;-68
2021/11/14 01:28:13;;;;;;;5.22;3.20;;;;;;;-4.37;100.00;102395.50;5113390;28;20516;-68
2021/11/14 01:30:43;;;;;;;6.15;2.90;;;;;;;-4.31;100.00;102379.63;5113762;28;20059;-68
2021/11/14 01:33:12;;;;;;;6.15;2.80;;;;;;;-4.35;100.00;102378.63;5113357;28;20053;-68
2021/11/14 01:35:39;;;;;;;5.65;3.08;;;;;;;-4.33;100.00;102371.94;5113686;28;20048;-68
2021/11/14 01:38:07;;;;;;;8.90;3.70;;;;;;;-4.46;100.00;102375.75;5113262;28;20051;-67
2021/11/14 01:40:38;;;;;;;7.53;3.33;;;;;;;-4.41;100.00;102373.38;5110895;28;20402;-68
2021/11/14 01:43:08;;;;;;;6.15;3.50;;;;;;;-4.48;100.00;102381.59;5113210;28;20047;-71
2021/11/14 01:45:36;;;;;;;6.70;4.00;;;;;;;-4.55;100.00;102385.59;5113244;28;20047;-71
2021/11/14 01:48:04;;;;;;;8.40;6.35;;;;;;;-4.49;100.00;102379.88;5113485;28;20078;-72
2021/11/14 01:50:32;;;;;;;7.93;6.28;;;;;;;-4.48;100.00;102382.47;5113129;28;20427;-72
2021/11/14 01:52:59;;;;;;;11.75;6.40;;;;;;;-4.41;100.00;102381.84;5113193;28;20051;-71
2021/11/14 01:55:29;;;;;;;10.52;6.82;;;;;;;-4.38;100.00;102386.16;5112939;28;20048;-71
2021/11/14 01:57:58;;;;;;;5.85;4.95;;;;;;;-4.34;100.00;102392.19;5112979;28;20061;-71
2021/11/14 02:00:30;;;;;;;6.70;4.07;;;;;;;-4.27;100.00;102391.59;5112652;28;20055;-71
2021/11/14 02:02:57;;;;;;;8.52;3.10;;;;;;;-4.25;100.00;102401.00;5112993;28;20060;-71
2021/11/14 02:05:26;;;;;;;6.82;3.35;;;;;;;-4.28;100.00;102397.50;5112787;28;20048;-71
2021/11/14 02:07:56;;;;;;;4.50;2.47;;;;;;;-4.33;100.00;102399.88;5113141;28;20051;-71
2021/11/14 02:10:25;;;;;;;5.20;2.88;;;;;;;-4.36;100.00;102406.56;5112812;28;20046;-72
2021/11/14 02:12:53;;;;;;;5.97;3.67;;;;;;;-4.49;100.00;102407.84;5113065;28;20054;-70
2021/11/14 02:15:20;;;;;;;7.43;3.05;;;;;;;-4.46;100.00;102407.94;5112507;28;20047;-71
2021/11/14 02:17:49;;;;;;;5.50;2.50;;;;;;;-4.47;100.00;102416.34;5112965;28;20047;-69
2021/11/14 02:20:19;;;;;;;5.97;2.80;;;;;;;-4.41;100.00;102417.44;5112130;28;20053;-67
2021/11/14 02:22:46;;;;;;;4.38;2.75;;;;;;;-4.30;100.00;102425.41;5112434;28;20052;-64
2021/11/14 02:25:17;;;;;;;6.78;2.47;;;;;;;-4.31;100.00;102421.13;5111933;28;20359;-65
2021/11/14 02:27:47;;;;;;;5.65;2.40;;;;;;;-4.11;100.00;102423.44;5112592;28;20060;-65
2021/11/14 02:30:16;;;;;;;3.25;1.75;;;;;;;-4.16;100.00;102424.19;5112126;28;20048;-65
2021/11/14 02:32:44;;;;;;;2.58;1.63;;;;;;;-4.26;100.00;102429.78;5112540;28;20409;-65
2021/11/14 02:35:12;;;;;;;6.50;2.38;;;;;;;-4.17;100.00;102436.81;5112321;28;20052;-65
2021/11/14 02:37:40;;;;;;;6.82;2.22;;;;;;;-4.14;100.00;102426.75;5112499;28;20051;-65
2021/11/14 02:40:09;;;;;;;2.97;1.60;;;;;;;-4.02;100.00;102431.38;5112112;28;20051;-66
2021/11/14 02:42:37;;;;;;;4.85;1.48;;;;;;;-3.92;100.00;102435.94;5112665;28;20044;-65
2021/11/14 02:45:07;;;;;;;3.80;1.35;;;;;;;-4.00;100.00;102428.06;5112282;28;20490;-65
2021/11/14 02:47:34;;;;;;;2.33;1.40;;;;;;;-3.84;100.00;102442.13;5112638;28;20051;-65
2021/11/14 02:50:01;;;;;;;;;;;;;;;-3.84;100.00;102441.25;5112957;28;20501;-65
2021/11/14 02:52:28;;;;;;;4.15;1.30;;;;;;;-3.89;100.00;102436.03;5112066;28;19923;-65
2021/11/14 02:54:56;;;;;;;3.40;1.15;;;;;;;-3.91;100.00;102442.75;5112194;28;20489;-65
2021/11/14 02:57:23;;;;;;;4.75;1.30;;;;;;;-3.76;100.00;102437.28;5111942;28;20048;-65
2021/11/14 02:59:50;;;;;;;5.15;1.27;;;;;;;-3.80;100.00;102441.41;5112500;28;20048;-65
2021/11/14 03:02:17;;;;;;;2.50;1.40;;;;;;;-3.83;100.00;102438.75;5112307;28;20459;-65
2021/11/14 03:04:44;;;;;;;3.15;1.65;;;;;;;-3.85;100.00;102437.88;5112578;28;20039;-65
2021/11/14 03:07:12;;;;;;;1.58;1.10;;;;;;;-3.82;100.00;102447.28;5112305;28;20047;-65
2021/11/14 03:09:39;;;;;;;2.08;1.00;;;;;;;-3.94;100.00;102456.22;5112363;28;20051;-65
2021/11/14 03:12:08;;;;;;;3.15;1.10;;;;;;;-3.62;100.00;102447.84;5111904;28;20051;-65
2021/11/14 03:14:36;;;;;;;4.22;1.08;;;;;;;-3.55;100.00;102452.31;5112078;28;20386;-65
2021/11/14 03:17:03;;;;;;;1.55;1.05;;;;;;;-3.57;100.00;102459.94;5112118;28;20497;-65
2021/11/14 03:19:30;;;;;;;2.85;1.20;;;;;;;-3.62;100.00;102465.66;5112444;28;20251;-65
2021/11/14 03:21:57;;;;;;;4.97;1.30;;;;;;;-3.72;100.00;102470.50;5112604;28;20040;-65
2021/11/14 03:24:24;;;;;;;2.40;1.08;;;;;;;-3.84;100.00;102469.25;5112070;28;20039;-65
2021/11/14 03:26:50;;;;;;;2.50;0.90;;;;;;;-3.89;100.00;102475.88;5111804;28;20048;-65
2021/11/14 03:29:19;;;;;;;3.38;1.10;;;;;;;-3.69;100.00;102466.31;5111790;28;20485;-65
2021/11/14 03:31:47;;;;;;;4.55;1.10;;;;;;;-3.67;100.00;102459.56;5111802;28;20051;-65
2021/11/14 03:34:15;;;;;;;1.55;1.17;;;;;;;-3.71;100.00;102471.34;5111598;28;20043;-65
2021/11/14 03:36:43;;;;;;;1.38;1.20;;;;;;;-3.89;100.00;102465.69;5112247;28;20052;-64
2021/11/14 03:39:09;;;;;;;4.13;0.90;;;;;;;-3.77;100.00;102466.09;5111894;28;20048;-64
2021/11/14 03:41:39;;;;;;;3.38;1.08;;;;;;;-3.87;100.00;102474.25;5112209;28;20051;-65
2021/11/14 03:44:08;;;;;;;4.07;1.20;;;;;;;-3.92;100.00;102474.09;5111867;28;20504;-65
2021/11/14 03:46:36;;;;;;;1.35;1.20;;;;;;;-3.97;100.00;102471.38;5111744;28;20408;-65
2021/11/14 03:49:05;;;;;;;3.05;1.05;;;;;;;-3.90;100.00;102469.03;5112080;28;20051;-65
2021/11/14 03:51:32;;;;;;;1.42;0.98;;;;;;;-3.80;100.00;102471.94;5115761;28;20043;-65
2021/11/14 03:54:00;;;;;;;3.17;1.05;;;;;;;-3.90;100.00;102486.84;5115252;28;20512;-65
2021/11/14 03:56:28;;;;;;;1.00;0.90;;;;;;;-4.08;100.00;102493.06;5115384;28;20074;-65
2021/11/14 03:58:55;;;;;;;3.00;1.25;;;;;;;-4.22;100.00;102505.31;5115303;28;20489;-65
2021/11/14 04:01:23;;;;;;;3.20;1.10;;;;;;;-4.38;100.00;102505.59;5115319;28;20048;-65
2021/11/14 04:03:52;;;;;;;2.80;1.20;;;;;;;-4.26;100.00;102510.25;5115150;28;20058;-64
2021/11/14 04:06:20;;;;;;;5.60;1.20;;;;;;;-4.17;100.00;102500.38;5115339;27;20052;-64
2021/11/14 04:08:47;;;;;;;3.63;1.15;;;;;;;-4.12;100.00;102511.56;5115128;28;20063;-64
2021/11/14 04:11:14;;;;;;;3.33;1.23;;;;;;;-4.24;100.00;102511.16;5114751;28;20051;-65
2021/11/14 04:13:41;;;;;;;1.77;0.98;;;;;;;-4.23;100.00;102520.53;5115298;28;20067;-65
2021/11/14 04:16:09;;;;;;;3.47;1.13;;;;;;;-4.08;100.00;102520.19;5114607;28;20043;-65
2021/11/14 04:18:37;;;;;;;4.47;1.15;;;;;;;-4.09;100.00;102510.81;5115191;27;20047;-64
2021/11/14 04:21:07;;;;;;;6.53;1.50;;;;;;;-4.16;100.00;102509.75;5114825;28;20043;-64
2021/11/14 04:23:34;;;;;;;1.15;1.08;;;;;;;-4.20;100.00;102518.06;5115202;28;20077;-65
2021/11/14 04:26:02;;;;;;;0.98;0.95;;;;;;;-4.27;100.00;102522.06;5114628;28;20054;-65
2021/11/14 04:28:29;;;;;;;1.58;1.00;;;;;;;-4.30;100.00;102513.50;5114394;28;20058;-65
2021/11/14 04:30:56;;;;;;;1.08;0.98;;;;;;;-4.24;100.00;102514.56;5114652;28;20489;-65
2021/11/14 04:33:23;;;;;;;3.67;1.13;;;;;;;-4.10;100.00;102522.66;5114663;28;20055;-65
2021/11/14 04:35:51;;;;;;;2.58;1.13;;;;;;;-4.13;100.00;102512.38;5114500;28;20509;-64
2021/11/14 04:38:20;;;;;;;1.50;1.10;;;;;;;-4.13;100.00;102522.56;5114443;28;20043;-64
2021/11/14 04:40:50;;;;;;;1.65;1.08;;;;;;;-4.14;100.00;102528.44;5114443;28;20052;-65
2021/11/14 04:43:19;;;;;;;3.65;1.15;;;;;;;-4.30;100.00;102527.06;5114406;28;20100;-65
2021/11/14 04:45:47;;;;;;;6.38;1.38;;;;;;;-4.37;100.00;102522.56;5114602;28;20043;-65
2021/11/14 04:48:14;;;;;;;3.55;1.30;;;;;;;-4.38;100.00;102529.34;5114086;28;20047;-65
2021/11/14 04:50:42;;;;;;;2.95;1.13;;;;;;;-4.50;100.00;102533.13;5114221;28;20177;-65
2021/11/14 04:53:10;;;;;;;2.42;1.20;;;;;;;-4.52;100.00;102538.16;5113804;28;20409;-65
2021/11/14 04:55:39;;;;;;;1.65;1.20;;;;;;;-4.53;100.00;102540.63;5114140;28;20040;-65
2021/11/14 04:58:07;;;;;;;1.75;1.10;;;;;;;-4.63;100.00;102537.75;5114258;28;20405;-65
2021/11/14 05:00:38;;;;;;;3.55;1.20;;;;;;;-4.67;100.00;102538.47;5113885;28;20405;-65
2021/11/14 05:03:05;;;;;;;5.65;1.27;;;;;;;-4.67;100.00;102540.16;5114418;28;20051;-65
2021/11/14 05:05:32;;;;;;;2.35;1.17;;;;;;;-4.57;100.00;102548.94;5114342;28;20054;-64
2021/11/14 05:07:59;;;;;;;4.78;1.38;;;;;;;-4.67;100.00;102538.47;5114190;28;20485;-65
2021/11/14 05:10:26;;;;;;;1.33;1.17;;;;;;;-4.61;100.00;102542.91;5113893;28;20054;-65
2021/11/14 05:12:54;;;;;;;2.92;1.00;;;;;;;-4.63;100.00;102564.84;5114097;28;20054;-64
2021/11/14 05:15:21;;;;;;;1.20;1.10;;;;;;;-4.75;100.00;102567.81;5113605;28;20047;-65
2021/11/14 05:17:48;;;;;;;3.22;1.10;;;;;;;-4.63;100.00;102564.84;5114113;28;20043;-65
2021/11/14 05:20:15;;;;;;;1.95;1.20;;;;;;;-4.48;100.00;102567.94;5113997;28;20047;-65
2021/11/14 05:22:41;;;;;;;2.33;1.20;;;;;;;-4.67;100.00;102574.03;5113710;28;20044;-65
2021/11/14 05:25:09;;;;;;;2.50;1.08;;;;;;;-4.68;100.00;102584.97;5113163;28;20048;-65
2021/11/14 05:27:37;;;;;;;3.75;1.30;;;;;;;-4.54;100.00;102574.50;5114043;28;20047;-64
2021/11/14 05:30:06;;;;;;;;;;;;;;;-4.64;100.00;102583.44;5114287;28;20043;-64
2021/11/14 05:32:33;;;;;;;15.10;7.43;;;;;;;-4.74;100.00;102591.53;5113904;28;19926;-64
2021/11/14 05:35:00;;;;;;;;;;;;;;;-4.68;100.00;102587.53;5113896;28;20478;-64
2021/11/14 05:37:27;;;;;;;3.72;1.75;;;;;;;-4.62;100.00;102590.31;5113167;28;19927;-64
2021/11/14 05:39:54;;;;;;;3.25;1.70;;;;;;;-4.69;100.00;102598.50;5113638;28;20051;-64
2021/11/14 05:42:22;;;;;;;3.30;1.55;;;;;;;-4.67;100.00;102608.75;5112988;28;20055;-65
2021/11/14 05:44:48;;;;;;;2.00;1.20;;;;;;;-4.69;100.00;102605.25;5113659;28;20078;-64
2021/11/14 05:47:17;;;;;;;3.33;1.25;;;;;;;-4.46;100.00;102593.41;5113049;28;20493;-65
2021/11/14 05:49:44;;;;;;;1.95;1.15;;;;;;;-4.42;100.00;102600.31;5113630;28;20409;-64
2021/11/14 05:52:11;;;;;;;5.55;1.50;;;;;;;-4.49;100.00;102603.47;5112788;28;20082;-64
2021/11/14 05:54:37;;;;;;;1.05;1.00;;;;;;;-4.59;100.00;102612.41;5112857;28;20503;-64
2021/11/14 05:57:05;;;;;;;2.50;1.00;;;;;;;-4.71;100.00;102614.50;5113194;28;20051;-64
2021/11/14 05:59:37;;;;;;;;;;;;;;;-4.83;100.00;102618.31;5113665;28;20054;-64
2021/11/14 06:02:08;;;;;;;3.15;1.20;;;;;;;-4.92;100.00;102617.94;5113373;28;19920;-64
2021/11/14 06:04:46;;;;;;;5.22;1.40;;;;;;;-4.95;100.00;102622.91;5112877;28;20519;-64
2021/11/14 06:07:13;;;;;;;3.40;1.50;;;;;;;-4.90;100.00;102623.97;5112984;28;20055;-65
2021/11/14 06:09:40;;;;;;;2.35;1.50;;;;;;;-4.71;100.00;102627.19;5112996;28;20047;-63
2021/11/14 06:12:08;;;;;;;3.92;1.65;;;;;;;-4.75;100.00;102632.97;5112067;28;20047;-64
2021/11/14 06:14:35;;;;;;;3.97;1.50;;;;;;;-4.78;100.00;102640.47;5112863;28;20048;-64
2021/11/14 06:17:03;;;;;;;2.78;1.38;;;;;;;-4.93;100.00;102635.66;5112701;28;20051;-64
2021/11/14 06:19:30;;;;;;;1.58;1.35;;;;;;;-4.98;100.00;102642.22;5112742;28;20044;-63
2021/11/14 06:21:58;;;;;;;3.53;1.48;;;;;;;-5.00;100.00;102647.25;5112906;28;20051;-64
2021/11/14 06:24:25;;;;;;;4.32;1.40;;;;;;;-5.09;100.00;102654.50;5112623;28;20051;-63
2021/11/14 06:26:52;;;;;;;3.13;1.52;;;;;;;-5.09;100.00;102664.66;5112409;28;20055;-66
2021/11/14 06:29:19;;;;;;;2.47;1.40;;;;;;;-5.07;100.00;102668.13;5112291;28;20406;-64
2021/11/14 06:31:46;;;;;;;7.55;1.40;;;;;;;-5.12;100.00;102670.47;5112762;28;20047;-64
2021/11/14 06:34:13;;;;;;;2.28;1.38;;;;;;;-5.08;100.00;102667.28;5112042;28;20507;-65
2021/11/14 06:36:39;;;;;;;5.10;1.95;;;;;;;-5.02;100.00;102674.25;5112484;28;20405;-65
2021/11/14 06:39:08;;;;;;;3.50;1.40;;;;;;;-4.96;100.00;102668.56;5112483;28;20079;-65
2021/11/14 06:41:34;;;;;;;4.20;1.45;;;;;;;-4.91;100.00;102678.06;5112294;28;20413;-65
2021/11/14 06:44:01;;;;;;;2.60;1.25;;;;;;;-4.84;100.00;102676.66;5112358;28;20401;-65
2021/11/14 06:46:28;;;;;;;2.28;1.30;;;;;;;-5.01;100.00;102680.19;5112403;28;20095;-65
2021/11/14 06:48:55;;;;;;;2.17;1.33;;;;;;;-4.96;100.00;102683.78;5112636;28;20070;-65
2021/11/14 06:51:22;;;;;;;7.60;4.15;;;;;;;-4.91;100.00;102682.28;5112012;28;20054;-64
2021/11/14 06:53:49;;;;;;;8.43;4.78;;;;;;;-4.96;100.00;102678.69;5112281;28;20047;-64
2021/11/14 06:56:17;;;;;;;5.95;2.58;;;;;;;-4.97;100.00;102687.13;5111884;28;20048;-64
2021/11/14 06:58:44;;;;;;;2.67;1.40;;;;;;;-4.89;100.00;102688.31;5112273;28;20137;-64
2021/11/14 07:01:11;;;;;;;4.63;1.58;;;;;;;-4.87;100.00;102686.69;5112181;28;20059;-64
2021/11/14 07:03:38;;;;;;;4.28;1.30;;;;;;;-4.87;100.00;102686.69;5112590;28;20047;-64
2021/11/14 07:06:05;;;;;;;2.75;1.30;;;;;;;-4.83;100.00;102684.34;5112517;28;20051;-64
2021/11/14 07:08:32;;;;;;;4.43;1.55;;;;;;;-4.79;100.00;102692.94;5112078;28;20074;-64
2021/11/14 07:10:59;;;;;;;3.97;1.40;;;;;;;-4.78;100.00;102687.03;5112462;28;20044;-64
2021/11/14 07:13:28;;;;;;;2.55;1.40;;;;;;;-4.83;100.00;102691.97;5112255;28;20052;-64
2021/11/14 07:15:55;;;;;;;3.25;1.48;;;;;;;-4.90;100.00;102686.59;5111948;28;20039;-64
2021/11/14 07:18:21;;;;;;;3.33;1.38;;;;;;;-4.86;100.00;102696.91;5111848;28;20052;-64
2021/11/14 07:20:48;;;;;;;4.35;1.70;;;;;;;-4.80;100.00;102688.69;5112485;28;20052;-64
2021/11/14 07:23:15;;;;;;;3.60;1.40;;;;;;;-4.66;100.00;102687.53;5111673;28;20048;-64
2021/11/14 07:25:42;;;;;;;2.28;1.40;;;;;;;-4.52;100.00;102693.16;5114676;28;20044;-65
2021/11/14 07:28:10;;;;;;;3.53;1.42;;;;;;;-4.53;100.00;102705.78;5116038;28;20047;-65
2021/11/14 07:30:39;;;;;;;2.95;1.50;;;;;;;-4.50;100.00;102719.44;5115982;28;20516;-65
2021/11/14 07:33:06;;;;;;;1.90;1.40;;;;;;;-4.29;100.00;102723.63;5115498;28;20058;-65
2021/11/14 07:35:33;;;;;;;1.95;1.33;;;;;;;-4.23;100.00;102724.72;5115959;28;20047;-64
2021/11/14 07:38:01;;;;;;;1.75;1.30;;;;;;;-4.29;100.00;102724.50;5116082;28;20101;-64
2021/11/14 07:40:27;;;;;;;4.60;1.48;;;;;;;-4.38;100.00;102731.78;5115716;28;20058;-65
2021/11/14 07:42:56;;;;;;;2.97;1.33;;;;;;;-4.24;100.00;102735.72;5115886;28;20051;-64
2021/11/14 07:45:25;;;;;;;3.35;1.40;;;;;;;-4.34;100.00;102738.72;5115575;28;20044;-64
2021/11/14 07:47:54;;;;;;;6.82;1.60;;;;;;;-4.23;100.00;102734.03;5115515;28;20056;-64
2021/11/14 07:50:23;;;;;;;3.20;1.70;;;;;;;-4.29;100.00;102738.88;5115235;28;20489;-64
2021/11/14 07:52:50;;;;;;;1.95;1.45;;;;;;;-4.31;100.00;102743.06;5115239;28;20044;-67
2021/11/14 07:55:17;;;;;;;2.60;1.27;;;;;;;-4.24;100.00;102748.44;5115285;28;20129;-65
2021/11/14 07:57:44;;;;;;;3.30;1.45;;;;;;;-4.32;100.00;102749.78;5115577;28;20044;-65
2021/11/14 08:00:13;;;;;;;4.57;1.55;;;;;;;-4.04;100.00;102754.22;5114953;28;20056;-65
2021/11/14 08:02:40;;;;;;;3.85;1.45;;;;;;;-4.01;100.00;102759.47;5115206;28;20520;-65
2021/11/14 08:05:10;;;;;;;2.97;1.45;;;;;;;-3.77;100.00;102759.47;5115036;28;20044;-65
2021/11/14 08:07:37;;;;;;;2.78;1.35;;;;;;;-3.80;100.00;102745.75;5115095;28;20404;-65
2021/11/14 08:10:05;;;;;;;;;;;;;;;-3.64;100.00;102737.03;5115420;28;20137;-65
2021/11/14 08:12:32;;;;;;;3.95;1.50;;;;;;;-3.68;100.00;102745.34;5114978;28;19920;-65
2021/11/14 08:14:59;;;;;;;3.65;1.80;;;;;;;-3.81;100.00;102754.22;5115009;28;20052;-65
2021/11/14 08:17:26;;;;;;;5.00;1.88;;;;;;;-3.96;100.00;102749.44;5114716;28;20048;-65
2021/11/14 08:19:55;;;;;;;;;;;;;;;-3.78;100.00;102752.63;5115561;28;20047;-65
2021/11/14 08:22:23;;;;;;;5.85;3.38;;;;;;;-3.83;100.00;102756.69;5114950;28;20018;-65
2021/11/14 08:24:50;;;;;;;5.28;1.90;;;;;;;-3.75;100.00;102760.41;5114811;28;20410;-65
2021/11/14 08:27:17;;;;;;;2.67;1.70;;;;;;;-3.68;100.00;102756.38;5114598;28;20043;-65
2021/11/14 08:29:44;;;;;;;7.85;2.05;;;;;;;-3.61;100.00;102754.94;5114999;28;20412;-66
2021/11/14 08:32:11;;;;;;;3.10;1.50;;;;;;;-3.55;100.00;102772.94;5114950;28;20058;-65
2021/11/14 08:34:37;;;;;;;1.60;1.38;;;;;;;-3.59;100.00;102781.31;5114965;28;20043;-66
2021/11/14 08:37:05;;;;;;;3.45;1.80;;;;;;;-3.72;100.00;102773.22;5114494;28;20052;-65
2021/11/14 08:39:33;;;;;;;;;;;;;;;-3.63;100.00;102780.31;5115527;28;20055;-66
2021/11/14 08:42:00;;;;;;;3.30;1.45;;;;;;;-3.67;100.00;102781.03;5114546;28;19926;-66
2021/11/14 08:44:28;;;;;;;2.00;1.17;;;;;;;-3.48;100.00;102787.63;5114593;28;20050;-65
2021/11/14 08:46:55;;;;;;;4.10;1.30;;;;;;;-3.36;100.00;102789.75;5114570;28;20050;-66
2021/11/14 08:49:22;;;;;;;;;;;;;;;-3.31;100.00;102790.78;5115051;28;20051;-64
2021/11/14 08:51:48;;;;;;;1.55;1.23;;;;;;;-3.18;100.00;102794.63;5114289;28;19927;-64
2021/11/14 08:54:16;;;;;;;1.92;1.20;;;;;;;-3.21;100.00;102787.75;5114404;28;20047;-65
2021/11/14 08:56:44;;;;;;;2.17;1.25;;;;;;;-3.17;100.00;102787.00;5114146;28;20071;-65
2021/11/14 08:59:11;;;;;;;2.17;1.13;;;;;;;-3.32;100.00;102784.81;5114245;28;20055;-65
2021/11/14 09:01:38;;;;;;;2.67;1.30;;;;;;;-3.25;100.00;102790.13;5114156;28;20489;-65
2021/11/14 09:04:07;;;;;;;1.77;1.35;;;;;;;-3.32;100.00;102794.97;5113969;28;20048;-65
2021/11/14 09:06:34;;;;;;;2.63;1.38;;;;;;;-3.38;100.00;102793.91;5114239;28;20206;-64
2021/11/14 09:09:01;;;;;;;1.35;1.02;;;;;;;-3.16;100.00;102792.97;5114287;28;20055;-64
2021/11/14 09:11:27;;;;;;;2.97;1.27;;;;;;;-3.07;100.00;102803.47;5113670;28;20051;-65
2021/11/14 09:13:56;;;;;;;3.30;1.00;;;;;;;-3.09;100.00;102802.56;5114113;28;20044;-64
2021/11/14 09:16:27;;;;;;;2.90;1.30;;;;;;;-3.07;100.00;102800.94;5113764;28;20055;-64
2021/11/14 09:18:55;;;;;;;2.03;1.25;;;;;;;-3.03;100.00;102797.69;5114107;28;20062;-64
2021/11/14 09:21:22;;;;;;;2.75;1.25;;;;;;;-3.01;100.00;102802.81;5113769;28;20050;-64
2021/11/14 09:23:49;;;;;;;2.28;1.27;;;;;;;-2.97;100.00;102804.66;5114019;28;20054;-64
2021/11/14 09:26:16;;;;;;;4.20;1.30;;;;;;;-2.82;100.00;102806.84;5113280;28;20082;-64
2021/11/14 09:28:43;;;;;;;1.73;1.10;;;;;;;-2.75;100.00;102807.13;5113787;28;20043;-64
2021/11/14 09:31:12;;;;;;;2.78;1.20;;;;;;;-2.51;100.00;102804.47;5113230;28;20089;-64
2021/11/14 09:33:40;;;;;;;3.58;1.48;;;;;;;-2.26;100.00;102815.41;5114150;28;20076;-64
2021/11/14 09:36:07;;;;;;;2.10;0.98;;;;;;;-2.30;100.00;102811.94;5113169;28;20044;-64
2021/11/14 09:38:35;;;;;;;1.23;1.05;;;;;;;-1.87;99.79;102817.47;5113434;28;20043;-64
2021/11/14 09:41:05;;;;;;;3.40;1.10;;;;;;;-1.87;98.73;102813.22;5113174;28;20315;-65
2021/11/14 09:43:32;;;;;;;4.70;1.25;;;;;;;-1.82;98.33;102819.31;5113356;28;20054;-65
2021/11/14 09:46:00;;;;;;;4.38;1.10;;;;;;;-1.74;98.50;102816.13;5113548;28;20055;-65
2021/11/14 09:48:28;;;;;;;3.20;1.20;;;;;;;-1.86;98.72;102817.50;5112130;28;20051;-65
2021/11/14 09:50:56;;;;;;;3.08;1.10;;;;;;;-1.79;98.75;102823.66;5113415;28;20047;-64
2021/11/14 09:53:27;;;;;;;5.82;3.38;;;;;;;-1.65;97.81;102830.00;5113087;28;20044;-65
2021/11/14 09:55:55;;;;;;;2.88;1.50;;;;;;;-1.61;98.11;102829.28;5113013;28;20052;-65
2021/11/14 09:58:23;;;;;;;1.73;1.20;;;;;;;-1.59;98.03;102837.84;5113031;27;20043;-65
2021/11/14 10:00:50;;;;;;;1.95;1.20;;;;;;;-1.52;97.86;102841.44;5113254;28;20058;-65
2021/11/14 10:03:17;;;;;;;;;;;;;;;-1.40;97.48;102846.03;5113157;28;20051;-65
2021/11/14 10:05:45;;;;;;;0.88;0.80;;;;;;;-1.32;96.94;102849.66;5113150;28;20022;-65
2021/11/14 10:08:12;;;;;;;1.33;1.15;;;;;;;-1.11;95.72;102857.91;5112596;28;20051;-65
2021/11/14 10:10:46;;;;;;;2.33;0.90;;;;;;;-1.24;96.12;102862.63;5112768;28;20058;-65
2021/11/14 10:13:15;;;;;;;2.03;1.10;;;;;;;-1.32;96.24;102860.72;5112466;28;20191;-65
2021/11/14 10:15:44;;;;;;;3.00;1.10;;;;;;;-1.30;95.39;102863.34;5112774;28;20429;-65
2021/11/14 10:18:12;;;;;;;1.08;1.00;;;;;;;-1.26;94.78;102860.03;5112094;28;20125;-64
2021/11/14 10:20:39;;;;;;;3.30;1.20;;;;;;;-1.28;94.56;102865.91;5112629;27;20086;-65
2021/11/14 10:23:09;;;;;;;;;;;;;;;-1.32;94.21;102860.72;5112792;28;20397;-64
2021/11/14 10:25:36;;;;;;;3.58;1.30;;;;;;;-1.45;95.10;102856.13;5112346;28;20396;-64
2021/11/14 10:28:04;;;;;;;;;;;;;;;-1.34;94.45;102867.50;5113218;28;20048;-65
2021/11/14 10:30:33;;;;;;;3.15;1.17;;;;;;;-1.30;93.88;102873.56;5112585;28;20288;-64
2021/11/14 10:33:02;;;;;;;3.53;1.30;;;;;;;-1.34;94.46;102892.16;5112520;28;20058;-65
2021/11/14 10:35:30;;;;;;;2.03;1.20;;;;;;;-1.35;94.92;102896.41;5112803;28;20059;-65
2021/11/14 10:38:00;;;;;;;5.13;1.25;;;;;;;-1.30;94.45;102898.25;5112485;28;20451;-65
2021/11/14 10:40:31;;;;;;;2.75;1.25;;;;;;;-1.27;92.71;102903.44;5112152;28;20489;-65
2021/11/14 10:43:00;;;;;;;1.77;1.10;;;;;;;-1.42;93.64;102904.72;5112437;28;20051;-64
2021/11/14 10:45:28;;;;;;;1.90;1.10;;;;;;;-1.33;91.78;102907.53;5112374;28;20039;-65
2021/11/14 10:47:56;;;;;;;2.28;1.30;;;;;;;-1.39;91.64;102916.69;5112592;28;20044;-65
2021/11/14 10:50:28;;;;;;;2.13;1.10;;;;;;;-1.42;92.37;102908.97;5112074;28;20052;-64
2021/11/14 10:52:57;;;;;;;3.15;1.33;;;;;;;-1.43;92.87;102917.44;5112659;28;20044;-64
2021/11/14 10:55:26;;;;;;;2.47;1.10;;;;;;;-1.42;92.36;102921.72;5112040;28;20104;-64
2021/11/14 10:57:54;;;;;;;0.73;0.73;;;;;;;-1.46;91.97;102933.56;5112375;28;20044;-64
2021/11/14 11:00:24;;;;;;;0.98;0.80;;;;;;;-1.60;91.49;102937.38;5116539;28;20050;-65
2021/11/14 11:02:51;;;;;;;1.35;0.90;;;;;;;-1.61;91.68;102933.09;5116530;28;20048;-64
2021/11/14 11:05:20;;;;;;;1.48;0.95;;;;;;;-1.54;91.94;102935.88;5116167;28;20048;-64
2021/11/14 11:07:56;;;;;;;3.45;1.23;;;;;;;-1.57;91.33;102934.91;5116218;28;20405;-64
2021/11/14 11:10:26;;;;;;;2.35;1.25;;;;;;;-1.64;90.99;102938.13;5116195;28;20043;-65
2021/11/14 11:12:54;;;;;;;1.85;1.10;;;;;;;-1.78;91.05;102942.78;5116260;28;20524;-64
2021/11/14 11:15:21;;;;;;;1.70;1.10;;;;;;;-1.69;90.78;102945.63;5115985;28;20485;-64
2021/11/14 11:17:51;;;;;;;2.15;1.10;;;;;;;-1.71;90.55;102951.50;5116382;28;20059;-65
2021/11/14 11:20:20;;;;;;;1.80;1.08;;;;;;;-1.66;91.92;102952.50;5115820;28;20062;-66
2021/11/14 11:22:53;;;;;;;5.65;1.33;;;;;;;-1.52;90.01;102945.25;5115823;28;20055;-66
2021/11/14 11:25:36;;;;;;;2.17;1.20;;;;;;;-1.57;90.87;102957.88;5115765;28;20421;-66